sensor_id;sensor_type;location;lat;lon;timestamp;temperature;humidity
23079;DHT22;11707;50.830;4.364;2023-12-29T00:00:09;11.30;1.00
23079;DHT22;11707;50.830;4.364;2023-12-29T00:02:35;11.20;1.00
23079;DHT22;11707;50.830;4.364;2023-12-29T00:05:01;11.20;3.30
23079;DHT22;11707;50.830;4.364;2023-12-29T00:07:27;11.10;9.50
23079;DHT22;11707;50.830;4.364;2023-12-29T00:09:52;11.10;11.40
23079;DHT22;11707;50.830;4.364;2023-12-29T00:12:18;11.00;14.20
23079;DHT22;11707;50.830;4.364;2023-12-29T00:14:44;11.00;16.40
23079;DHT22;11707;50.830;4.364;2023-12-29T00:17:10;10.90;22.90
23079;DHT22;11707;50.830;4.364;2023-12-29T00:19:38;11.00;19.10
23079;DHT22;11707;50.830;4.364;2023-12-29T00:22:04;11.00;17.20
23079;DHT22;11707;50.830;4.364;2023-12-29T00:24:32;11.10;10.20
23079;DHT22;11707;50.830;4.364;2023-12-29T00:26:58;11.10;10.80
23079;DHT22;11707;50.830;4.364;2023-12-29T00:29:24;11.20;6.40
23079;DHT22;11707;50.830;4.364;2023-12-29T00:31:50;11.20;3.10
23079;DHT22;11707;50.830;4.364;2023-12-29T00:34:16;11.20;1.30
23079;DHT22;11707;50.830;4.364;2023-12-29T00:36:41;11.20;3.50
23079;DHT22;11707;50.830;4.364;2023-12-29T00:39:07;11.00;15.60
23079;DHT22;11707;50.830;4.364;2023-12-29T00:41:33;11.00;20.50
23079;DHT22;11707;50.830;4.364;2023-12-29T00:43:58;10.90;23.30
23079;DHT22;11707;50.830;4.364;2023-12-29T00:46:24;10.80;32.70
23079;DHT22;11707;50.830;4.364;2023-12-29T00:48:49;10.90;29.50
23079;DHT22;11707;50.830;4.364;2023-12-29T00:51:15;10.90;28.50
23079;DHT22;11707;50.830;4.364;2023-12-29T00:53:41;11.00;25.10
23079;DHT22;11707;50.830;4.364;2023-12-29T00:56:11;11.00;22.20
23079;DHT22;11707;50.830;4.364;2023-12-29T00:58:37;11.00;21.60
23079;DHT22;11707;50.830;4.364;2023-12-29T01:01:03;11.10;18.70
23079;DHT22;11707;50.830;4.364;2023-12-29T01:03:28;11.10;17.80
23079;DHT22;11707;50.830;4.364;2023-12-29T01:05:54;11.10;16.10
23079;DHT22;11707;50.830;4.364;2023-12-29T01:08:20;11.10;17.00
23079;DHT22;11707;50.830;4.364;2023-12-29T01:10:45;11.00;19.60
23079;DHT22;11707;50.830;4.364;2023-12-29T01:13:11;11.00;20.10
23079;DHT22;11707;50.830;4.364;2023-12-29T01:15:37;11.00;21.10
23079;DHT22;11707;50.830;4.364;2023-12-29T01:18:03;11.10;16.50
23079;DHT22;11707;50.830;4.364;2023-12-29T01:20:29;11.10;18.80
23079;DHT22;11707;50.830;4.364;2023-12-29T01:22:54;11.20;20.10
23079;DHT22;11707;50.830;4.364;2023-12-29T01:25:20;11.30;12.50
23079;DHT22;11707;50.830;4.364;2023-12-29T01:27:46;11.30;10.30
23079;DHT22;11707;50.830;4.364;2023-12-29T01:30:11;11.20;9.50
23079;DHT22;11707;50.830;4.364;2023-12-29T01:32:37;11.10;14.90
23079;DHT22;11707;50.830;4.364;2023-12-29T01:35:03;11.10;18.20
23079;DHT22;11707;50.830;4.364;2023-12-29T01:37:29;11.10;21.40
23079;DHT22;11707;50.830;4.364;2023-12-29T01:39:57;11.10;21.20
23079;DHT22;11707;50.830;4.364;2023-12-29T01:42:23;11.10;19.00
23079;DHT22;11707;50.830;4.364;2023-12-29T01:44:51;11.10;18.30
23079;DHT22;11707;50.830;4.364;2023-12-29T01:47:20;11.10;15.60
23079;DHT22;11707;50.830;4.364;2023-12-29T01:49:47;11.20;13.00
23079;DHT22;11707;50.830;4.364;2023-12-29T01:52:15;11.20;11.90
23079;DHT22;11707;50.830;4.364;2023-12-29T01:54:43;11.10;17.90
23079;DHT22;11707;50.830;4.364;2023-12-29T01:57:10;11.10;15.20
23079;DHT22;11707;50.830;4.364;2023-12-29T01:59:37;11.20;16.90
23079;DHT22;11707;50.830;4.364;2023-12-29T02:02:04;11.10;16.30
23079;DHT22;11707;50.830;4.364;2023-12-29T02:04:30;11.10;18.10
23079;DHT22;11707;50.830;4.364;2023-12-29T02:06:56;11.10;22.00
23079;DHT22;11707;50.830;4.364;2023-12-29T02:09:23;11.10;23.10
23079;DHT22;11707;50.830;4.364;2023-12-29T02:11:48;11.10;24.60
23079;DHT22;11707;50.830;4.364;2023-12-29T02:14:15;11.20;21.80
23079;DHT22;11707;50.830;4.364;2023-12-29T02:16:58;11.20;19.40
23079;DHT22;11707;50.830;4.364;2023-12-29T02:19:37;11.20;20.00
23079;DHT22;11707;50.830;4.364;2023-12-29T02:22:04;11.20;19.40
23079;DHT22;11707;50.830;4.364;2023-12-29T02:24:30;11.20;20.70
23079;DHT22;11707;50.830;4.364;2023-12-29T02:29:32;11.10;21.10
23079;DHT22;11707;50.830;4.364;2023-12-29T02:31:59;11.20;20.80
23079;DHT22;11707;50.830;4.364;2023-12-29T02:34:28;11.20;15.70
23079;DHT22;11707;50.830;4.364;2023-12-29T02:36:56;11.10;21.80
23079;DHT22;11707;50.830;4.364;2023-12-29T02:39:24;11.10;24.40
23079;DHT22;11707;50.830;4.364;2023-12-29T02:41:50;11.10;23.50
23079;DHT22;11707;50.830;4.364;2023-12-29T02:44:16;11.10;31.20
23079;DHT22;11707;50.830;4.364;2023-12-29T02:46:42;11.10;33.10
23079;DHT22;11707;50.830;4.364;2023-12-29T02:49:09;11.10;31.50
23079;DHT22;11707;50.830;4.364;2023-12-29T02:51:38;11.10;33.90
23079;DHT22;11707;50.830;4.364;2023-12-29T02:54:04;11.10;35.50
23079;DHT22;11707;50.830;4.364;2023-12-29T02:56:33;11.00;35.20
23079;DHT22;11707;50.830;4.364;2023-12-29T02:58:59;11.00;35.90
23079;DHT22;11707;50.830;4.364;2023-12-29T03:01:25;11.00;41.30
23079;DHT22;11707;50.830;4.364;2023-12-29T03:03:51;10.90;48.60
23079;DHT22;11707;50.830;4.364;2023-12-29T03:06:16;10.90;52.10
23079;DHT22;11707;50.830;4.364;2023-12-29T03:08:42;10.90;51.30
23079;DHT22;11707;50.830;4.364;2023-12-29T03:11:08;10.90;52.40
23079;DHT22;11707;50.830;4.364;2023-12-29T03:13:34;10.90;54.60
23079;DHT22;11707;50.830;4.364;2023-12-29T03:16:00;10.90;55.30
23079;DHT22;11707;50.830;4.364;2023-12-29T03:18:25;10.90;59.00
23079;DHT22;11707;50.830;4.364;2023-12-29T03:20:51;10.90;58.00
23079;DHT22;11707;50.830;4.364;2023-12-29T03:23:16;10.90;55.10
23079;DHT22;11707;50.830;4.364;2023-12-29T03:25:42;10.80;56.30
23079;DHT22;11707;50.830;4.364;2023-12-29T03:28:08;10.80;62.40
23079;DHT22;11707;50.830;4.364;2023-12-29T03:30:34;10.80;61.70
23079;DHT22;11707;50.830;4.364;2023-12-29T03:32:59;10.80;63.10
23079;DHT22;11707;50.830;4.364;2023-12-29T03:35:25;10.90;63.50
23079;DHT22;11707;50.830;4.364;2023-12-29T03:37:51;10.90;57.80
23079;DHT22;11707;50.830;4.364;2023-12-29T03:40:19;10.90;51.60
23079;DHT22;11707;50.830;4.364;2023-12-29T03:42:45;10.90;54.20
23079;DHT22;11707;50.830;4.364;2023-12-29T03:45:12;10.80;56.70
23079;DHT22;11707;50.830;4.364;2023-12-29T03:47:38;10.80;59.90
23079;DHT22;11707;50.830;4.364;2023-12-29T03:50:04;10.90;60.80
23079;DHT22;11707;50.830;4.364;2023-12-29T03:52:30;11.00;57.90
23079;DHT22;11707;50.830;4.364;2023-12-29T03:54:58;11.00;49.10
23079;DHT22;11707;50.830;4.364;2023-12-29T03:57:24;10.90;52.50
23079;DHT22;11707;50.830;4.364;2023-12-29T03:59:49;10.80;56.10
23079;DHT22;11707;50.830;4.364;2023-12-29T04:02:15;10.90;63.50
23079;DHT22;11707;50.830;4.364;2023-12-29T04:04:43;10.80;61.10
23079;DHT22;11707;50.830;4.364;2023-12-29T04:07:08;10.80;68.90
23079;DHT22;11707;50.830;4.364;2023-12-29T04:09:34;10.80;70.50
23079;DHT22;11707;50.830;4.364;2023-12-29T04:11:59;10.70;69.20
23079;DHT22;11707;50.830;4.364;2023-12-29T04:14:25;10.80;71.90
23079;DHT22;11707;50.830;4.364;2023-12-29T04:16:51;10.80;65.00
23079;DHT22;11707;50.830;4.364;2023-12-29T04:19:16;10.80;62.50
23079;DHT22;11707;50.830;4.364;2023-12-29T04:21:42;10.80;65.90
23079;DHT22;11707;50.830;4.364;2023-12-29T04:24:08;10.70;71.50
23079;DHT22;11707;50.830;4.364;2023-12-29T04:26:37;10.70;78.20
23079;DHT22;11707;50.830;4.364;2023-12-29T04:29:03;10.80;71.30
23079;DHT22;11707;50.830;4.364;2023-12-29T04:31:28;10.70;74.90
23079;DHT22;11707;50.830;4.364;2023-12-29T04:33:54;10.70;74.90
23079;DHT22;11707;50.830;4.364;2023-12-29T04:36:20;10.70;79.70
23079;DHT22;11707;50.830;4.364;2023-12-29T04:38:45;10.70;78.40
23079;DHT22;11707;50.830;4.364;2023-12-29T04:41:14;10.80;72.20
23079;DHT22;11707;50.830;4.364;2023-12-29T04:43:40;10.70;77.30
23079;DHT22;11707;50.830;4.364;2023-12-29T04:46:05;10.70;88.40
23079;DHT22;11707;50.830;4.364;2023-12-29T04:48:34;10.70;84.20
23079;DHT22;11707;50.830;4.364;2023-12-29T04:50:59;10.60;90.60
23079;DHT22;11707;50.830;4.364;2023-12-29T04:53:25;10.60;89.20
23079;DHT22;11707;50.830;4.364;2023-12-29T04:55:51;10.70;88.60
23079;DHT22;11707;50.830;4.364;2023-12-29T04:58:21;10.70;86.40
23079;DHT22;11707;50.830;4.364;2023-12-29T05:00:46;10.70;88.20
23079;DHT22;11707;50.830;4.364;2023-12-29T05:03:12;10.60;90.10
23079;DHT22;11707;50.830;4.364;2023-12-29T05:05:38;10.60;72.10
23079;DHT22;11707;50.830;4.364;2023-12-29T05:08:06;10.60;71.50
23079;DHT22;11707;50.830;4.364;2023-12-29T05:10:32;10.50;79.80
23079;DHT22;11707;50.830;4.364;2023-12-29T05:13:00;10.60;78.80
23079;DHT22;11707;50.830;4.364;2023-12-29T05:15:25;10.60;77.40
23079;DHT22;11707;50.830;4.364;2023-12-29T05:17:51;10.50;55.70
23079;DHT22;11707;50.830;4.364;2023-12-29T05:20:17;10.50;56.90
23079;DHT22;11707;50.830;4.364;2023-12-29T05:22:43;10.50;58.70
23079;DHT22;11707;50.830;4.364;2023-12-29T05:25:08;10.60;53.00
23079;DHT22;11707;50.830;4.364;2023-12-29T05:27:34;10.60;49.00
23079;DHT22;11707;50.830;4.364;2023-12-29T05:30:02;10.60;50.10
23079;DHT22;11707;50.830;4.364;2023-12-29T05:32:28;10.70;49.40
23079;DHT22;11707;50.830;4.364;2023-12-29T05:34:54;10.80;41.00
23079;DHT22;11707;50.830;4.364;2023-12-29T05:37:19;10.70;39.00
23079;DHT22;11707;50.830;4.364;2023-12-29T05:39:45;10.60;47.10
23079;DHT22;11707;50.830;4.364;2023-12-29T05:42:11;10.60;51.50
23079;DHT22;11707;50.830;4.364;2023-12-29T05:44:39;10.60;47.80
23079;DHT22;11707;50.830;4.364;2023-12-29T05:47:08;10.70;49.20
23079;DHT22;11707;50.830;4.364;2023-12-29T05:49:34;10.70;44.30
23079;DHT22;11707;50.830;4.364;2023-12-29T05:52:05;10.80;48.70
23079;DHT22;11707;50.830;4.364;2023-12-29T05:54:31;10.80;41.50
23079;DHT22;11707;50.830;4.364;2023-12-29T05:56:57;10.80;41.40
23079;DHT22;11707;50.830;4.364;2023-12-29T05:59:22;10.80;41.20
23079;DHT22;11707;50.830;4.364;2023-12-29T06:01:48;10.80;49.40
23079;DHT22;11707;50.830;4.364;2023-12-29T06:04:14;10.60;68.90
23079;DHT22;11707;50.830;4.364;2023-12-29T06:06:42;10.40;91.50
23079;DHT22;11707;50.830;4.364;2023-12-29T06:09:09;10.20;99.90
23079;DHT22;11707;50.830;4.364;2023-12-29T06:11:37;10.00;99.90
23079;DHT22;11707;50.830;4.364;2023-12-29T06:14:03;9.90;99.90
23079;DHT22;11707;50.830;4.364;2023-12-29T06:16:29;9.90;99.90
23079;DHT22;11707;50.830;4.364;2023-12-29T06:18:56;9.80;99.90
23079;DHT22;11707;50.830;4.364;2023-12-29T06:21:22;9.90;99.90
23079;DHT22;11707;50.830;4.364;2023-12-29T06:23:50;9.90;99.90
23079;DHT22;11707;50.830;4.364;2023-12-29T06:26:17;10.00;99.90
23079;DHT22;11707;50.830;4.364;2023-12-29T06:28:46;9.90;99.90
23079;DHT22;11707;50.830;4.364;2023-12-29T06:31:12;9.90;99.90
23079;DHT22;11707;50.830;4.364;2023-12-29T06:33:42;9.90;99.90
23079;DHT22;11707;50.830;4.364;2023-12-29T06:36:08;9.90;99.90
23079;DHT22;11707;50.830;4.364;2023-12-29T06:38:34;9.90;99.90
23079;DHT22;11707;50.830;4.364;2023-12-29T06:41:03;9.80;99.90
23079;DHT22;11707;50.830;4.364;2023-12-29T06:43:29;9.90;99.90
23079;DHT22;11707;50.830;4.364;2023-12-29T06:45:55;9.90;99.90
23079;DHT22;11707;50.830;4.364;2023-12-29T06:48:21;9.90;99.90
23079;DHT22;11707;50.830;4.364;2023-12-29T06:50:49;9.80;99.90
23079;DHT22;11707;50.830;4.364;2023-12-29T06:53:17;9.70;99.90
23079;DHT22;11707;50.830;4.364;2023-12-29T06:55:43;9.80;99.90
23079;DHT22;11707;50.830;4.364;2023-12-29T06:58:09;9.80;99.90
23079;DHT22;11707;50.830;4.364;2023-12-29T07:00:34;9.80;99.90
23079;DHT22;11707;50.830;4.364;2023-12-29T07:03:01;9.70;99.90
23079;DHT22;11707;50.830;4.364;2023-12-29T07:05:27;9.70;99.90
23079;DHT22;11707;50.830;4.364;2023-12-29T07:07:55;9.70;99.90
23079;DHT22;11707;50.830;4.364;2023-12-29T07:10:20;9.60;99.90
23079;DHT22;11707;50.830;4.364;2023-12-29T07:12:46;9.70;99.90
23079;DHT22;11707;50.830;4.364;2023-12-29T07:15:12;9.60;99.90
23079;DHT22;11707;50.830;4.364;2023-12-29T07:17:39;9.60;99.90
23079;DHT22;11707;50.830;4.364;2023-12-29T07:20:06;9.50;99.90
23079;DHT22;11707;50.830;4.364;2023-12-29T07:22:32;9.50;99.90
23079;DHT22;11707;50.830;4.364;2023-12-29T07:24:58;9.50;99.90
23079;DHT22;11707;50.830;4.364;2023-12-29T07:27:26;9.50;99.90
23079;DHT22;11707;50.830;4.364;2023-12-29T07:29:52;9.40;99.90
23079;DHT22;11707;50.830;4.364;2023-12-29T07:32:17;9.40;99.90
23079;DHT22;11707;50.830;4.364;2023-12-29T07:34:43;9.50;99.90
23079;DHT22;11707;50.830;4.364;2023-12-29T07:37:12;9.50;99.90
23079;DHT22;11707;50.830;4.364;2023-12-29T07:39:40;9.50;99.90
23079;DHT22;11707;50.830;4.364;2023-12-29T07:42:06;9.60;99.90
23079;DHT22;11707;50.830;4.364;2023-12-29T07:44:36;9.60;99.90
23079;DHT22;11707;50.830;4.364;2023-12-29T07:47:02;9.60;99.90
23079;DHT22;11707;50.830;4.364;2023-12-29T07:49:27;9.60;99.90
23079;DHT22;11707;50.830;4.364;2023-12-29T07:51:53;9.60;99.90
23079;DHT22;11707;50.830;4.364;2023-12-29T07:54:19;9.60;99.90
23079;DHT22;11707;50.830;4.364;2023-12-29T07:56:45;9.70;99.90
23079;DHT22;11707;50.830;4.364;2023-12-29T07:59:10;9.70;99.90
23079;DHT22;11707;50.830;4.364;2023-12-29T08:01:36;9.70;99.90
23079;DHT22;11707;50.830;4.364;2023-12-29T08:04:05;9.70;99.90
23079;DHT22;11707;50.830;4.364;2023-12-29T08:06:32;9.70;99.90
23079;DHT22;11707;50.830;4.364;2023-12-29T08:08:58;9.80;99.90
23079;DHT22;11707;50.830;4.364;2023-12-29T08:11:23;9.80;99.90
23079;DHT22;11707;50.830;4.364;2023-12-29T08:13:49;9.80;99.90
23079;DHT22;11707;50.830;4.364;2023-12-29T08:16:15;9.80;99.90
23079;DHT22;11707;50.830;4.364;2023-12-29T08:18:49;9.80;99.90
23079;DHT22;11707;50.830;4.364;2023-12-29T08:21:20;9.90;99.90
23079;DHT22;11707;50.830;4.364;2023-12-29T08:23:49;9.90;99.90
23079;DHT22;11707;50.830;4.364;2023-12-29T08:26:15;9.90;99.90
23079;DHT22;11707;50.830;4.364;2023-12-29T08:28:43;9.90;99.90
23079;DHT22;11707;50.830;4.364;2023-12-29T08:31:10;9.90;99.90
23079;DHT22;11707;50.830;4.364;2023-12-29T08:33:36;9.90;99.90
23079;DHT22;11707;50.830;4.364;2023-12-29T08:36:02;9.90;99.90
23079;DHT22;11707;50.830;4.364;2023-12-29T08:38:29;9.90;99.90
23079;DHT22;11707;50.830;4.364;2023-12-29T08:40:59;9.90;99.90
23079;DHT22;11707;50.830;4.364;2023-12-29T08:43:25;9.90;99.90
23079;DHT22;11707;50.830;4.364;2023-12-29T08:45:50;10.00;99.90
23079;DHT22;11707;50.830;4.364;2023-12-29T08:48:16;10.00;99.90
23079;DHT22;11707;50.830;4.364;2023-12-29T08:50:43;10.10;99.90
23079;DHT22;11707;50.830;4.364;2023-12-29T08:53:09;10.10;99.90
23079;DHT22;11707;50.830;4.364;2023-12-29T08:55:37;10.10;99.90
23079;DHT22;11707;50.830;4.364;2023-12-29T08:58:03;10.10;99.90
23079;DHT22;11707;50.830;4.364;2023-12-29T09:00:28;10.10;99.90
23079;DHT22;11707;50.830;4.364;2023-12-29T09:02:57;10.00;99.90
23079;DHT22;11707;50.830;4.364;2023-12-29T09:05:23;10.00;99.90
23079;DHT22;11707;50.830;4.364;2023-12-29T09:07:48;10.10;99.90
23079;DHT22;11707;50.830;4.364;2023-12-29T09:10:14;10.00;99.90
23079;DHT22;11707;50.830;4.364;2023-12-29T09:12:40;10.10;99.90
23079;DHT22;11707;50.830;4.364;2023-12-29T09:15:07;10.00;99.90
23079;DHT22;11707;50.830;4.364;2023-12-29T09:17:33;10.00;99.90
23079;DHT22;11707;50.830;4.364;2023-12-29T09:19:59;10.00;99.90
23079;DHT22;11707;50.830;4.364;2023-12-29T09:22:28;10.00;99.90
23079;DHT22;11707;50.830;4.364;2023-12-29T09:24:56;10.10;99.90
23079;DHT22;11707;50.830;4.364;2023-12-29T09:27:22;10.00;99.90
23079;DHT22;11707;50.830;4.364;2023-12-29T09:29:47;10.00;99.90
23079;DHT22;11707;50.830;4.364;2023-12-29T09:32:13;10.00;99.90
23079;DHT22;11707;50.830;4.364;2023-12-29T09:34:39;10.00;99.90
23079;DHT22;11707;50.830;4.364;2023-12-29T09:37:04;10.00;99.90
23079;DHT22;11707;50.830;4.364;2023-12-29T09:39:30;10.10;99.90
23079;DHT22;11707;50.830;4.364;2023-12-29T09:42:03;10.10;99.90
23079;DHT22;11707;50.830;4.364;2023-12-29T09:44:33;10.10;99.90
23079;DHT22;11707;50.830;4.364;2023-12-29T09:47:02;10.10;99.90
23079;DHT22;11707;50.830;4.364;2023-12-29T09:49:37;10.10;99.90
23079;DHT22;11707;50.830;4.364;2023-12-29T09:52:03;10.10;99.90
23079;DHT22;11707;50.830;4.364;2023-12-29T09:54:31;10.10;99.90
23079;DHT22;11707;50.830;4.364;2023-12-29T09:56:58;10.20;99.90
23079;DHT22;11707;50.830;4.364;2023-12-29T09:59:25;10.30;99.90
23079;DHT22;11707;50.830;4.364;2023-12-29T10:01:52;10.30;99.90
23079;DHT22;11707;50.830;4.364;2023-12-29T10:04:19;10.30;99.90
23079;DHT22;11707;50.830;4.364;2023-12-29T10:06:46;10.30;99.90
23079;DHT22;11707;50.830;4.364;2023-12-29T10:09:14;10.30;99.90
23079;DHT22;11707;50.830;4.364;2023-12-29T10:11:42;10.30;99.90
23079;DHT22;11707;50.830;4.364;2023-12-29T10:14:35;10.40;99.90
23079;DHT22;11707;50.830;4.364;2023-12-29T10:17:09;10.40;99.90
23079;DHT22;11707;50.830;4.364;2023-12-29T10:19:42;10.40;99.90
23079;DHT22;11707;50.830;4.364;2023-12-29T10:22:31;10.50;99.90
23079;DHT22;11707;50.830;4.364;2023-12-29T10:25:00;10.50;99.90
23079;DHT22;11707;50.830;4.364;2023-12-29T10:27:26;10.50;99.90
23079;DHT22;11707;50.830;4.364;2023-12-29T10:29:52;10.60;99.90
23079;DHT22;11707;50.830;4.364;2023-12-29T10:32:18;10.60;99.90
23079;DHT22;11707;50.830;4.364;2023-12-29T10:34:43;10.70;99.90
23079;DHT22;11707;50.830;4.364;2023-12-29T10:37:09;10.80;99.90
23079;DHT22;11707;50.830;4.364;2023-12-29T10:39:39;10.80;99.90
23079;DHT22;11707;50.830;4.364;2023-12-29T10:42:11;10.90;99.90
23079;DHT22;11707;50.830;4.364;2023-12-29T10:44:38;10.90;99.90
23079;DHT22;11707;50.830;4.364;2023-12-29T10:47:10;11.00;99.90
23079;DHT22;11707;50.830;4.364;2023-12-29T10:49:39;10.90;99.90
23079;DHT22;11707;50.830;4.364;2023-12-29T10:52:15;11.00;99.90
23079;DHT22;11707;50.830;4.364;2023-12-29T10:54:44;11.00;99.90
23079;DHT22;11707;50.830;4.364;2023-12-29T10:57:13;10.90;99.90
23079;DHT22;11707;50.830;4.364;2023-12-29T10:59:39;10.90;99.90
23079;DHT22;11707;50.830;4.364;2023-12-29T11:02:05;10.90;99.90
23079;DHT22;11707;50.830;4.364;2023-12-29T11:04:33;10.90;99.90
23079;DHT22;11707;50.830;4.364;2023-12-29T11:06:59;11.00;99.90
23079;DHT22;11707;50.830;4.364;2023-12-29T11:09:29;11.10;99.90
23079;DHT22;11707;50.830;4.364;2023-12-29T11:12:02;11.10;99.90
23079;DHT22;11707;50.830;4.364;2023-12-29T11:14:29;11.20;99.90
23079;DHT22;11707;50.830;4.364;2023-12-29T11:16:58;11.20;99.90
23079;DHT22;11707;50.830;4.364;2023-12-29T11:19:27;11.10;99.90
23079;DHT22;11707;50.830;4.364;2023-12-29T11:21:56;11.30;99.90
23079;DHT22;11707;50.830;4.364;2023-12-29T11:24:22;11.20;99.90
23079;DHT22;11707;50.830;4.364;2023-12-29T11:26:51;11.20;99.90
23079;DHT22;11707;50.830;4.364;2023-12-29T11:29:18;11.30;99.90
23079;DHT22;11707;50.830;4.364;2023-12-29T11:31:48;11.30;99.90
23079;DHT22;11707;50.830;4.364;2023-12-29T11:34:25;11.30;99.90
23079;DHT22;11707;50.830;4.364;2023-12-29T11:36:59;11.30;99.90
23079;DHT22;11707;50.830;4.364;2023-12-29T11:39:38;11.30;99.90
23079;DHT22;11707;50.830;4.364;2023-12-29T11:42:19;11.30;99.90
23079;DHT22;11707;50.830;4.364;2023-12-29T11:44:46;11.30;99.90
23079;DHT22;11707;50.830;4.364;2023-12-29T11:47:35;11.30;99.90
23079;DHT22;11707;50.830;4.364;2023-12-29T11:50:02;11.30;99.90
23079;DHT22;11707;50.830;4.364;2023-12-29T11:52:36;11.30;99.90
23079;DHT22;11707;50.830;4.364;2023-12-29T11:55:11;11.20;99.90
23079;DHT22;11707;50.830;4.364;2023-12-29T11:57:38;11.10;99.90
23079;DHT22;11707;50.830;4.364;2023-12-29T12:00:07;10.90;99.90
23079;DHT22;11707;50.830;4.364;2023-12-29T12:02:33;10.90;99.90
23079;DHT22;11707;50.830;4.364;2023-12-29T12:04:59;10.90;99.90
23079;DHT22;11707;50.830;4.364;2023-12-29T12:09:51;10.80;99.90
23079;DHT22;11707;50.830;4.364;2023-12-29T12:12:39;10.70;99.90
23079;DHT22;11707;50.830;4.364;2023-12-29T12:15:31;10.70;99.90
23079;DHT22;11707;50.830;4.364;2023-12-29T12:18:10;10.50;99.90
23079;DHT22;11707;50.830;4.364;2023-12-29T12:20:38;10.50;99.90
23079;DHT22;11707;50.830;4.364;2023-12-29T12:23:17;10.60;99.90
23079;DHT22;11707;50.830;4.364;2023-12-29T12:25:45;10.60;99.90
23079;DHT22;11707;50.830;4.364;2023-12-29T12:28:14;10.70;99.90
23079;DHT22;11707;50.830;4.364;2023-12-29T12:30:40;10.70;99.90
23079;DHT22;11707;50.830;4.364;2023-12-29T12:33:06;10.60;99.90
23079;DHT22;11707;50.830;4.364;2023-12-29T12:35:36;10.70;99.90
23079;DHT22;11707;50.830;4.364;2023-12-29T12:38:14;10.60;99.90
23079;DHT22;11707;50.830;4.364;2023-12-29T12:40:40;10.60;99.90
23079;DHT22;11707;50.830;4.364;2023-12-29T12:43:06;10.50;99.90
23079;DHT22;11707;50.830;4.364;2023-12-29T12:45:59;10.50;99.90
23079;DHT22;11707;50.830;4.364;2023-12-29T12:48:40;10.60;99.90
23079;DHT22;11707;50.830;4.364;2023-12-29T12:51:07;10.60;99.90
23079;DHT22;11707;50.830;4.364;2023-12-29T12:53:33;10.60;99.90
23079;DHT22;11707;50.830;4.364;2023-12-29T12:55:59;10.50;99.90
23079;DHT22;11707;50.830;4.364;2023-12-29T12:58:25;10.50;99.90
23079;DHT22;11707;50.830;4.364;2023-12-29T13:00:57;10.50;99.90
23079;DHT22;11707;50.830;4.364;2023-12-29T13:03:23;10.50;99.90
23079;DHT22;11707;50.830;4.364;2023-12-29T13:05:50;10.40;99.90
23079;DHT22;11707;50.830;4.364;2023-12-29T13:08:17;10.40;99.90
23079;DHT22;11707;50.830;4.364;2023-12-29T13:10:43;10.40;99.90
23079;DHT22;11707;50.830;4.364;2023-12-29T13:13:10;10.40;99.90
23079;DHT22;11707;50.830;4.364;2023-12-29T13:15:45;10.40;99.90
23079;DHT22;11707;50.830;4.364;2023-12-29T13:18:11;10.50;99.90
23079;DHT22;11707;50.830;4.364;2023-12-29T13:20:51;10.50;99.90
23079;DHT22;11707;50.830;4.364;2023-12-29T13:23:19;10.60;99.90
23079;DHT22;11707;50.830;4.364;2023-12-29T13:25:46;10.60;99.90
23079;DHT22;11707;50.830;4.364;2023-12-29T13:28:12;10.70;99.90
23079;DHT22;11707;50.830;4.364;2023-12-29T13:30:39;10.80;99.90
23079;DHT22;11707;50.830;4.364;2023-12-29T13:33:14;10.90;99.90
23079;DHT22;11707;50.830;4.364;2023-12-29T13:35:48;10.90;99.90
23079;DHT22;11707;50.830;4.364;2023-12-29T13:38:25;11.00;99.90
23079;DHT22;11707;50.830;4.364;2023-12-29T13:41:24;10.90;99.90
23079;DHT22;11707;50.830;4.364;2023-12-29T13:43:52;10.90;99.90
23079;DHT22;11707;50.830;4.364;2023-12-29T13:46:18;10.90;99.90
23079;DHT22;11707;50.830;4.364;2023-12-29T13:48:45;10.90;99.90
23079;DHT22;11707;50.830;4.364;2023-12-29T13:51:12;10.80;99.90
23079;DHT22;11707;50.830;4.364;2023-12-29T13:53:38;10.90;99.90
23079;DHT22;11707;50.830;4.364;2023-12-29T13:56:10;10.80;99.90
23079;DHT22;11707;50.830;4.364;2023-12-29T13:58:36;10.70;99.90
23079;DHT22;11707;50.830;4.364;2023-12-29T14:01:06;10.70;99.90
23079;DHT22;11707;50.830;4.364;2023-12-29T14:04:11;10.80;99.90
23079;DHT22;11707;50.830;4.364;2023-12-29T14:06:50;10.70;99.90
23079;DHT22;11707;50.830;4.364;2023-12-29T14:09:17;10.70;99.90
23079;DHT22;11707;50.830;4.364;2023-12-29T14:11:48;10.70;99.90
23079;DHT22;11707;50.830;4.364;2023-12-29T14:14:14;10.70;99.90
23079;DHT22;11707;50.830;4.364;2023-12-29T14:16:42;10.80;99.90
23079;DHT22;11707;50.830;4.364;2023-12-29T14:19:08;10.70;99.90
23079;DHT22;11707;50.830;4.364;2023-12-29T14:21:34;10.80;99.90
23079;DHT22;11707;50.830;4.364;2023-12-29T14:24:12;10.80;99.90
23079;DHT22;11707;50.830;4.364;2023-12-29T14:26:42;10.70;99.90
23079;DHT22;11707;50.830;4.364;2023-12-29T14:29:12;10.70;99.90
23079;DHT22;11707;50.830;4.364;2023-12-29T14:31:44;10.70;99.90
23079;DHT22;11707;50.830;4.364;2023-12-29T14:34:10;10.50;99.90
23079;DHT22;11707;50.830;4.364;2023-12-29T14:36:42;10.40;99.90
23079;DHT22;11707;50.830;4.364;2023-12-29T14:39:09;10.30;99.90
23079;DHT22;11707;50.830;4.364;2023-12-29T14:41:38;10.30;99.90
23079;DHT22;11707;50.830;4.364;2023-12-29T14:44:04;10.20;99.90
23079;DHT22;11707;50.830;4.364;2023-12-29T14:46:30;10.20;99.90
23079;DHT22;11707;50.830;4.364;2023-12-29T14:48:58;10.10;99.90
23079;DHT22;11707;50.830;4.364;2023-12-29T14:51:24;10.20;99.90
23079;DHT22;11707;50.830;4.364;2023-12-29T14:53:50;10.30;99.90
23079;DHT22;11707;50.830;4.364;2023-12-29T14:56:16;10.40;99.90
23079;DHT22;11707;50.830;4.364;2023-12-29T14:58:43;10.40;99.90
23079;DHT22;11707;50.830;4.364;2023-12-29T15:01:09;10.30;99.90
23079;DHT22;11707;50.830;4.364;2023-12-29T15:03:35;10.40;99.90
23079;DHT22;11707;50.830;4.364;2023-12-29T15:06:02;10.30;99.90
23079;DHT22;11707;50.830;4.364;2023-12-29T15:08:28;10.40;99.90
23079;DHT22;11707;50.830;4.364;2023-12-29T15:11:00;10.40;99.90
23079;DHT22;11707;50.830;4.364;2023-12-29T15:13:27;10.50;99.90
23079;DHT22;11707;50.830;4.364;2023-12-29T15:15:54;10.50;99.90
23079;DHT22;11707;50.830;4.364;2023-12-29T15:18:22;10.50;99.90
23079;DHT22;11707;50.830;4.364;2023-12-29T15:20:49;10.50;99.90
23079;DHT22;11707;50.830;4.364;2023-12-29T15:23:14;10.50;99.90
23079;DHT22;11707;50.830;4.364;2023-12-29T15:25:40;10.60;99.90
23079;DHT22;11707;50.830;4.364;2023-12-29T15:28:07;10.60;99.90
23079;DHT22;11707;50.830;4.364;2023-12-29T15:30:33;10.70;99.90
23079;DHT22;11707;50.830;4.364;2023-12-29T15:32:59;10.70;99.90
23079;DHT22;11707;50.830;4.364;2023-12-29T15:35:24;10.70;99.90
23079;DHT22;11707;50.830;4.364;2023-12-29T15:37:54;10.80;99.90
23079;DHT22;11707;50.830;4.364;2023-12-29T15:40:20;10.80;99.90